CheckWX is a tool to help pilots better visualize weather data.  It is not intended as a substitute for an official pre-flight weather briefing.

06:05:34 UTC

CYPE METAR
Peace River Airport
Peace River, Canada
Current

1 hour ago

CYPE 200500Z 29007KT 15SM BKN095 BKN250 M06/M08 A2963 RMK AC5CI2 SLP072
Observed
Feb-20 @ 05:00 UTC
Wind
  • 290° at 7 KTS
Visibility
24,140 meters
Flight Rules
VFR
Cloud Levels
  • Broken at 9,500' AGL
  • Broken at 25,000' AGL
Temperature
-6°C / 21°F
Dewpoint
-8°C / 18°F
Humidity
86%
Altimeter
29.63" Hg
Pressure
1007.2 hPa
Previous

2 hours ago

CYPE 200400Z 29008KT 15SM FEW089 BKN250 M06/M08 A2962 RMK AC1CI5 AC TR SLP070
Observed
Feb-20 @ 04:00 UTC
Wind
  • 290° at 8 KTS
Visibility
24,140 meters
Flight Rules
VFR
Cloud Levels
  • Few at 8,900' AGL
  • Broken at 25,000' AGL
Temperature
-6°C / 21°F
Dewpoint
-8°C / 18°F
Humidity
86%
Altimeter
29.62" Hg
Pressure
1007 hPa
Previous

3 hours ago

CYPE 200300Z 27004KT 15SM SCT089 SCT250 M06/M08 A2961 RMK AC3CI1 CI TR SLP069
Observed
Feb-20 @ 03:00 UTC
Wind
  • 270° at 4 KTS
Visibility
24,140 meters
Flight Rules
VFR
Cloud Levels
  • Scattered at 8,900' AGL
  • Scattered at 25,000' AGL
Temperature
-6°C / 21°F
Dewpoint
-8°C / 18°F
Humidity
86%
Altimeter
29.61" Hg
Pressure
1006.9 hPa